sensor_id;sensor_type;location;lat;lon;timestamp;P1;durP1;ratioP1;P2;durP2;ratioP2
74543;SDS011;63016;55.030;38.710;2023-04-25T00:02:20;14.82;;;5.90;;
74543;SDS011;63016;55.030;38.710;2023-04-25T00:04:47;10.00;;;5.68;;
74543;SDS011;63016;55.030;38.710;2023-04-25T00:07:14;11.70;;;5.90;;
74543;SDS011;63016;55.030;38.710;2023-04-25T00:09:40;11.05;;;6.47;;
74543;SDS011;63016;55.030;38.710;2023-04-25T00:12:06;11.82;;;5.70;;
74543;SDS011;63016;55.030;38.710;2023-04-25T00:14:32;11.88;;;6.10;;
74543;SDS011;63016;55.030;38.710;2023-04-25T00:17:00;8.68;;;5.75;;
74543;SDS011;63016;55.030;38.710;2023-04-25T00:19:27;12.52;;;5.88;;
74543;SDS011;63016;55.030;38.710;2023-04-25T00:21:54;11.07;;;5.45;;
74543;SDS011;63016;55.030;38.710;2023-04-25T00:24:20;11.52;;;6.20;;
74543;SDS011;63016;55.030;38.710;2023-04-25T00:26:45;11.35;;;5.75;;
74543;SDS011;63016;55.030;38.710;2023-04-25T00:29:11;9.52;;;5.78;;
74543;SDS011;63016;55.030;38.710;2023-04-25T00:31:36;10.93;;;5.85;;
74543;SDS011;63016;55.030;38.710;2023-04-25T00:34:02;13.90;;;6.30;;
74543;SDS011;63016;55.030;38.710;2023-04-25T00:36:28;10.68;;;5.70;;
74543;SDS011;63016;55.030;38.710;2023-04-25T00:38:53;15.50;;;6.68;;
74543;SDS011;63016;55.030;38.710;2023-04-25T00:41:19;13.63;;;6.20;;
74543;SDS011;63016;55.030;38.710;2023-04-25T00:43:45;9.88;;;6.18;;
74543;SDS011;63016;55.030;38.710;2023-04-25T00:46:13;9.15;;;6.35;;
74543;SDS011;63016;55.030;38.710;2023-04-25T00:48:38;12.48;;;6.22;;
74543;SDS011;63016;55.030;38.710;2023-04-25T00:51:04;13.40;;;6.50;;
74543;SDS011;63016;55.030;38.710;2023-04-25T00:53:30;11.48;;;5.70;;
74543;SDS011;63016;55.030;38.710;2023-04-25T00:55:57;10.40;;;5.88;;
74543;SDS011;63016;55.030;38.710;2023-04-25T00:58:23;15.73;;;7.05;;
74543;SDS011;63016;55.030;38.710;2023-04-25T01:00:49;9.05;;;6.00;;
74543;SDS011;63016;55.030;38.710;2023-04-25T01:03:19;12.35;;;5.88;;
74543;SDS011;63016;55.030;38.710;2023-04-25T01:05:46;9.95;;;5.65;;
74543;SDS011;63016;55.030;38.710;2023-04-25T01:08:12;12.25;;;6.68;;
74543;SDS011;63016;55.030;38.710;2023-04-25T01:10:39;8.55;;;5.78;;
74543;SDS011;63016;55.030;38.710;2023-04-25T01:13:04;13.05;;;5.82;;
74543;SDS011;63016;55.030;38.710;2023-04-25T01:15:30;10.13;;;5.38;;
74543;SDS011;63016;55.030;38.710;2023-04-25T01:17:56;9.40;;;5.70;;
74543;SDS011;63016;55.030;38.710;2023-04-25T01:20:23;14.00;;;6.03;;
74543;SDS011;63016;55.030;38.710;2023-04-25T01:22:50;12.98;;;5.60;;
74543;SDS011;63016;55.030;38.710;2023-04-25T01:25:17;8.27;;;5.13;;
74543;SDS011;63016;55.030;38.710;2023-04-25T01:27:44;12.70;;;5.95;;
74543;SDS011;63016;55.030;38.710;2023-04-25T01:30:10;10.43;;;5.55;;
74543;SDS011;63016;55.030;38.710;2023-04-25T01:32:36;9.32;;;5.15;;
74543;SDS011;63016;55.030;38.710;2023-04-25T01:35:05;11.80;;;6.00;;
74543;SDS011;63016;55.030;38.710;2023-04-25T01:37:35;8.55;;;5.15;;
74543;SDS011;63016;55.030;38.710;2023-04-25T01:40:05;11.05;;;5.43;;
74543;SDS011;63016;55.030;38.710;2023-04-25T01:42:31;10.73;;;5.55;;
74543;SDS011;63016;55.030;38.710;2023-04-25T01:44:58;9.93;;;5.55;;
74543;SDS011;63016;55.030;38.710;2023-04-25T01:47:24;13.43;;;6.00;;
74543;SDS011;63016;55.030;38.710;2023-04-25T01:49:50;11.70;;;4.97;;
74543;SDS011;63016;55.030;38.710;2023-04-25T01:52:16;12.75;;;5.57;;
74543;SDS011;63016;55.030;38.710;2023-04-25T01:54:41;9.27;;;5.60;;
74543;SDS011;63016;55.030;38.710;2023-04-25T01:57:12;14.00;;;5.97;;
74543;SDS011;63016;55.030;38.710;2023-04-25T01:59:38;11.50;;;5.57;;
74543;SDS011;63016;55.030;38.710;2023-04-25T02:02:04;11.07;;;5.95;;
74543;SDS011;63016;55.030;38.710;2023-04-25T02:04:30;10.55;;;5.88;;
74543;SDS011;63016;55.030;38.710;2023-04-25T02:06:55;9.18;;;6.18;;
74543;SDS011;63016;55.030;38.710;2023-04-25T02:09:21;11.35;;;5.82;;
74543;SDS011;63016;55.030;38.710;2023-04-25T02:11:47;10.23;;;6.05;;
74543;SDS011;63016;55.030;38.710;2023-04-25T02:14:13;10.70;;;6.00;;
74543;SDS011;63016;55.030;38.710;2023-04-25T02:16:38;9.93;;;6.03;;
74543;SDS011;63016;55.030;38.710;2023-04-25T02:19:04;11.07;;;6.53;;
74543;SDS011;63016;55.030;38.710;2023-04-25T02:21:30;10.07;;;5.80;;
74543;SDS011;63016;55.030;38.710;2023-04-25T02:23:56;10.15;;;6.20;;
74543;SDS011;63016;55.030;38.710;2023-04-25T02:26:22;11.90;;;5.78;;
74543;SDS011;63016;55.030;38.710;2023-04-25T02:28:48;12.90;;;5.70;;
74543;SDS011;63016;55.030;38.710;2023-04-25T02:31:15;10.07;;;5.78;;
74543;SDS011;63016;55.030;38.710;2023-04-25T02:33:41;9.27;;;5.75;;
74543;SDS011;63016;55.030;38.710;2023-04-25T02:36:06;9.60;;;6.03;;
74543;SDS011;63016;55.030;38.710;2023-04-25T02:38:32;11.02;;;5.75;;
74543;SDS011;63016;55.030;38.710;2023-04-25T02:40:58;9.20;;;5.82;;
74543;SDS011;63016;55.030;38.710;2023-04-25T02:43:23;10.23;;;5.65;;
74543;SDS011;63016;55.030;38.710;2023-04-25T02:45:49;14.88;;;6.35;;
74543;SDS011;63016;55.030;38.710;2023-04-25T02:48:14;10.40;;;5.47;;
74543;SDS011;63016;55.030;38.710;2023-04-25T02:50:40;11.77;;;6.32;;
74543;SDS011;63016;55.030;38.710;2023-04-25T02:53:05;10.40;;;5.82;;
74543;SDS011;63016;55.030;38.710;2023-04-25T02:55:31;11.23;;;6.47;;
74543;SDS011;63016;55.030;38.710;2023-04-25T02:57:56;10.05;;;5.97;;
74543;SDS011;63016;55.030;38.710;2023-04-25T03:00:22;12.15;;;5.63;;
74543;SDS011;63016;55.030;38.710;2023-04-25T03:02:47;11.73;;;6.47;;
74543;SDS011;63016;55.030;38.710;2023-04-25T03:05:13;12.80;;;5.60;;
74543;SDS011;63016;55.030;38.710;2023-04-25T03:07:39;12.20;;;6.43;;
74543;SDS011;63016;55.030;38.710;2023-04-25T03:10:07;10.63;;;6.05;;
74543;SDS011;63016;55.030;38.710;2023-04-25T03:12:33;11.07;;;5.90;;
74543;SDS011;63016;55.030;38.710;2023-04-25T03:14:58;12.05;;;5.70;;
74543;SDS011;63016;55.030;38.710;2023-04-25T03:17:24;10.88;;;5.63;;
74543;SDS011;63016;55.030;38.710;2023-04-25T03:19:49;11.80;;;5.85;;
74543;SDS011;63016;55.030;38.710;2023-04-25T03:22:15;12.93;;;5.53;;
74543;SDS011;63016;55.030;38.710;2023-04-25T03:24:40;12.38;;;5.60;;
74543;SDS011;63016;55.030;38.710;2023-04-25T03:27:06;12.75;;;6.22;;
74543;SDS011;63016;55.030;38.710;2023-04-25T03:29:31;10.13;;;5.28;;
74543;SDS011;63016;55.030;38.710;2023-04-25T03:31:57;12.55;;;5.72;;
74543;SDS011;63016;55.030;38.710;2023-04-25T03:34:22;11.40;;;5.20;;
74543;SDS011;63016;55.030;38.710;2023-04-25T03:36:49;14.18;;;5.18;;
74543;SDS011;63016;55.030;38.710;2023-04-25T03:39:14;9.55;;;5.05;;
74543;SDS011;63016;55.030;38.710;2023-04-25T03:41:40;12.52;;;5.63;;
74543;SDS011;63016;55.030;38.710;2023-04-25T03:44:06;8.68;;;4.93;;
74543;SDS011;63016;55.030;38.710;2023-04-25T03:46:31;10.57;;;5.35;;
74543;SDS011;63016;55.030;38.710;2023-04-25T03:48:57;9.25;;;5.35;;
74543;SDS011;63016;55.030;38.710;2023-04-25T03:51:22;12.60;;;5.65;;
74543;SDS011;63016;55.030;38.710;2023-04-25T03:53:48;11.40;;;5.75;;
74543;SDS011;63016;55.030;38.710;2023-04-25T03:56:13;13.32;;;5.45;;
74543;SDS011;63016;55.030;38.710;2023-04-25T03:58:39;13.43;;;5.97;;
74543;SDS011;63016;55.030;38.710;2023-04-25T04:01:04;14.18;;;5.93;;
74543;SDS011;63016;55.030;38.710;2023-04-25T04:03:33;15.93;;;6.03;;
74543;SDS011;63016;55.030;38.710;2023-04-25T04:06:02;15.38;;;6.30;;
74543;SDS011;63016;55.030;38.710;2023-04-25T04:08:29;15.50;;;6.55;;
74543;SDS011;63016;55.030;38.710;2023-04-25T04:10:55;17.52;;;6.15;;
74543;SDS011;63016;55.030;38.710;2023-04-25T04:13:21;14.38;;;5.88;;
74543;SDS011;63016;55.030;38.710;2023-04-25T04:15:47;13.65;;;6.70;;
74543;SDS011;63016;55.030;38.710;2023-04-25T04:18:12;9.82;;;5.25;;
74543;SDS011;63016;55.030;38.710;2023-04-25T04:20:38;12.45;;;6.50;;
74543;SDS011;63016;55.030;38.710;2023-04-25T04:23:04;9.35;;;5.30;;
74543;SDS011;63016;55.030;38.710;2023-04-25T04:25:30;9.57;;;5.28;;
74543;SDS011;63016;55.030;38.710;2023-04-25T04:27:56;13.82;;;5.40;;
74543;SDS011;63016;55.030;38.710;2023-04-25T04:30:22;10.63;;;5.30;;
74543;SDS011;63016;55.030;38.710;2023-04-25T04:32:54;10.18;;;5.03;;
74543;SDS011;63016;55.030;38.710;2023-04-25T04:35:20;10.38;;;5.22;;
74543;SDS011;63016;55.030;38.710;2023-04-25T04:40:31;11.85;;;5.20;;
74543;SDS011;63016;55.030;38.710;2023-04-25T04:42:57;10.43;;;4.95;;
74543;SDS011;63016;55.030;38.710;2023-04-25T04:45:22;8.02;;;4.35;;
74543;SDS011;63016;55.030;38.710;2023-04-25T04:47:48;8.05;;;4.28;;
74543;SDS011;63016;55.030;38.710;2023-04-25T04:50:15;7.32;;;3.70;;
74543;SDS011;63016;55.030;38.710;2023-04-25T04:52:41;8.57;;;3.50;;
74543;SDS011;63016;55.030;38.710;2023-04-25T04:55:07;8.18;;;4.05;;
74543;SDS011;63016;55.030;38.710;2023-04-25T04:57:33;8.80;;;3.47;;
74543;SDS011;63016;55.030;38.710;2023-04-25T04:59:59;6.25;;;3.40;;
74543;SDS011;63016;55.030;38.710;2023-04-25T05:02:25;9.57;;;3.63;;
74543;SDS011;63016;55.030;38.710;2023-04-25T05:04:52;8.90;;;3.38;;
74543;SDS011;63016;55.030;38.710;2023-04-25T05:07:18;7.07;;;3.53;;
74543;SDS011;63016;55.030;38.710;2023-04-25T05:12:28;9.98;;;3.38;;
74543;SDS011;63016;55.030;38.710;2023-04-25T05:14:54;6.80;;;3.55;;
74543;SDS011;63016;55.030;38.710;2023-04-25T05:17:19;6.88;;;3.38;;
74543;SDS011;63016;55.030;38.710;2023-04-25T05:19:45;8.52;;;3.60;;
74543;SDS011;63016;55.030;38.710;2023-04-25T05:22:10;7.25;;;3.10;;
74543;SDS011;63016;55.030;38.710;2023-04-25T05:24:36;9.35;;;3.47;;
74543;SDS011;63016;55.030;38.710;2023-04-25T05:27:01;7.75;;;3.28;;
74543;SDS011;63016;55.030;38.710;2023-04-25T05:29:27;4.93;;;2.88;;
74543;SDS011;63016;55.030;38.710;2023-04-25T05:31:52;7.00;;;2.53;;
74543;SDS011;63016;55.030;38.710;2023-04-25T05:34:18;4.82;;;2.38;;
74543;SDS011;63016;55.030;38.710;2023-04-25T05:36:43;8.68;;;2.38;;
74543;SDS011;63016;55.030;38.710;2023-04-25T05:39:09;3.05;;;1.88;;
74543;SDS011;63016;55.030;38.710;2023-04-25T05:41:35;3.80;;;2.20;;
74543;SDS011;63016;55.030;38.710;2023-04-25T05:44:01;5.50;;;2.08;;
74543;SDS011;63016;55.030;38.710;2023-04-25T05:46:27;5.13;;;2.08;;
74543;SDS011;63016;55.030;38.710;2023-04-25T05:48:52;6.72;;;2.13;;
74543;SDS011;63016;55.030;38.710;2023-04-25T05:51:18;3.15;;;2.30;;
74543;SDS011;63016;55.030;38.710;2023-04-25T05:53:43;4.20;;;1.90;;
74543;SDS011;63016;55.030;38.710;2023-04-25T05:56:09;4.53;;;2.00;;
74543;SDS011;63016;55.030;38.710;2023-04-25T05:58:34;7.22;;;2.17;;
74543;SDS011;63016;55.030;38.710;2023-04-25T06:01:00;4.65;;;2.13;;
74543;SDS011;63016;55.030;38.710;2023-04-25T06:03:26;2.72;;;1.80;;
74543;SDS011;63016;55.030;38.710;2023-04-25T06:05:51;8.38;;;2.20;;
74543;SDS011;63016;55.030;38.710;2023-04-25T06:08:17;4.72;;;2.28;;
74543;SDS011;63016;55.030;38.710;2023-04-25T06:10:42;6.75;;;2.42;;
74543;SDS011;63016;55.030;38.710;2023-04-25T06:13:08;7.78;;;2.13;;
74543;SDS011;63016;55.030;38.710;2023-04-25T06:15:52;5.18;;;2.42;;
74543;SDS011;63016;55.030;38.710;2023-04-25T06:18:17;4.45;;;2.30;;
74543;SDS011;63016;55.030;38.710;2023-04-25T06:20:43;3.53;;;2.05;;
74543;SDS011;63016;55.030;38.710;2023-04-25T06:23:08;5.03;;;2.38;;
74543;SDS011;63016;55.030;38.710;2023-04-25T06:25:34;5.35;;;2.08;;
74543;SDS011;63016;55.030;38.710;2023-04-25T06:27:59;4.03;;;1.80;;
74543;SDS011;63016;55.030;38.710;2023-04-25T06:30:25;7.95;;;2.40;;
74543;SDS011;63016;55.030;38.710;2023-04-25T06:32:51;7.32;;;2.20;;
74543;SDS011;63016;55.030;38.710;2023-04-25T06:35:35;9.52;;;2.28;;
74543;SDS011;63016;55.030;38.710;2023-04-25T06:38:01;5.15;;;1.92;;
74543;SDS011;63016;55.030;38.710;2023-04-25T06:40:26;5.65;;;2.13;;
74543;SDS011;63016;55.030;38.710;2023-04-25T06:42:52;5.55;;;2.40;;
74543;SDS011;63016;55.030;38.710;2023-04-25T06:45:17;5.95;;;1.75;;
74543;SDS011;63016;55.030;38.710;2023-04-25T06:47:43;7.18;;;2.17;;
74543;SDS011;63016;55.030;38.710;2023-04-25T06:50:08;6.20;;;2.38;;
74543;SDS011;63016;55.030;38.710;2023-04-25T06:52:34;8.00;;;2.38;;
74543;SDS011;63016;55.030;38.710;2023-04-25T06:54:59;5.88;;;2.03;;
74543;SDS011;63016;55.030;38.710;2023-04-25T06:57:25;6.15;;;2.15;;
74543;SDS011;63016;55.030;38.710;2023-04-25T06:59:51;6.45;;;2.47;;
74543;SDS011;63016;55.030;38.710;2023-04-25T07:02:17;6.95;;;1.90;;
74543;SDS011;63016;55.030;38.710;2023-04-25T07:04:42;8.10;;;1.90;;
74543;SDS011;63016;55.030;38.710;2023-04-25T07:07:08;5.53;;;1.75;;
74543;SDS011;63016;55.030;38.710;2023-04-25T07:09:33;3.92;;;1.65;;
74543;SDS011;63016;55.030;38.710;2023-04-25T07:11:59;5.20;;;1.75;;
74543;SDS011;63016;55.030;38.710;2023-04-25T07:14:26;2.95;;;1.60;;
74543;SDS011;63016;55.030;38.710;2023-04-25T07:16:52;4.05;;;1.80;;
74543;SDS011;63016;55.030;38.710;2023-04-25T07:19:18;2.42;;;1.35;;
74543;SDS011;63016;55.030;38.710;2023-04-25T07:21:43;5.88;;;1.60;;
74543;SDS011;63016;55.030;38.710;2023-04-25T07:24:09;8.80;;;1.80;;
74543;SDS011;63016;55.030;38.710;2023-04-25T07:26:35;5.25;;;1.70;;
74543;SDS011;63016;55.030;38.710;2023-04-25T07:29:00;6.05;;;1.77;;
74543;SDS011;63016;55.030;38.710;2023-04-25T07:31:26;5.18;;;1.77;;
74543;SDS011;63016;55.030;38.710;2023-04-25T07:33:51;5.60;;;1.90;;
74543;SDS011;63016;55.030;38.710;2023-04-25T07:36:17;6.05;;;1.70;;
74543;SDS011;63016;55.030;38.710;2023-04-25T07:38:42;6.22;;;1.63;;
74543;SDS011;63016;55.030;38.710;2023-04-25T07:41:08;5.15;;;1.40;;
74543;SDS011;63016;55.030;38.710;2023-04-25T07:43:33;1.92;;;1.48;;
74543;SDS011;63016;55.030;38.710;2023-04-25T07:45:59;3.95;;;1.50;;
74543;SDS011;63016;55.030;38.710;2023-04-25T07:48:24;4.50;;;1.92;;
74543;SDS011;63016;55.030;38.710;2023-04-25T07:50:50;2.67;;;1.67;;
74543;SDS011;63016;55.030;38.710;2023-04-25T07:53:16;3.97;;;1.63;;
74543;SDS011;63016;55.030;38.710;2023-04-25T07:55:42;4.07;;;1.40;;
74543;SDS011;63016;55.030;38.710;2023-04-25T07:58:08;5.00;;;1.90;;
74543;SDS011;63016;55.030;38.710;2023-04-25T08:00:34;4.97;;;1.80;;
74543;SDS011;63016;55.030;38.710;2023-04-25T08:03:00;3.05;;;2.00;;
74543;SDS011;63016;55.030;38.710;2023-04-25T08:05:26;3.42;;;2.15;;
74543;SDS011;63016;55.030;38.710;2023-04-25T08:07:51;3.67;;;1.45;;
74543;SDS011;63016;55.030;38.710;2023-04-25T08:10:17;5.03;;;1.58;;
74543;SDS011;63016;55.030;38.710;2023-04-25T08:12:42;1.70;;;1.60;;
74543;SDS011;63016;55.030;38.710;2023-04-25T08:15:08;1.63;;;1.50;;
74543;SDS011;63016;55.030;38.710;2023-04-25T08:17:34;4.88;;;2.03;;
74543;SDS011;63016;55.030;38.710;2023-04-25T08:20:00;2.80;;;1.80;;
74543;SDS011;63016;55.030;38.710;2023-04-25T08:22:26;4.72;;;2.20;;
74543;SDS011;63016;55.030;38.710;2023-04-25T08:24:51;5.55;;;2.15;;
74543;SDS011;63016;55.030;38.710;2023-04-25T08:27:17;2.95;;;2.40;;
74543;SDS011;63016;55.030;38.710;2023-04-25T08:29:43;3.78;;;2.20;;
74543;SDS011;63016;55.030;38.710;2023-04-25T08:32:09;4.75;;;2.60;;
74543;SDS011;63016;55.030;38.710;2023-04-25T08:34:35;3.13;;;2.40;;
74543;SDS011;63016;55.030;38.710;2023-04-25T08:37:01;4.32;;;2.40;;
74543;SDS011;63016;55.030;38.710;2023-04-25T08:39:29;7.75;;;2.67;;
74543;SDS011;63016;55.030;38.710;2023-04-25T08:41:54;5.18;;;3.13;;
74543;SDS011;63016;55.030;38.710;2023-04-25T08:44:21;6.15;;;2.42;;
74543;SDS011;63016;55.030;38.710;2023-04-25T08:46:48;6.28;;;2.58;;
74543;SDS011;63016;55.030;38.710;2023-04-25T08:49:16;5.13;;;2.38;;
74543;SDS011;63016;55.030;38.710;2023-04-25T08:51:44;3.97;;;2.17;;
74543;SDS011;63016;55.030;38.710;2023-04-25T08:54:15;6.90;;;2.20;;
74543;SDS011;63016;55.030;38.710;2023-04-25T08:56:42;5.88;;;1.80;;
74543;SDS011;63016;55.030;38.710;2023-04-25T08:59:10;3.53;;;2.05;;
74543;SDS011;63016;55.030;38.710;2023-04-25T09:01:37;3.92;;;2.40;;
74543;SDS011;63016;55.030;38.710;2023-04-25T09:04:02;3.67;;;2.10;;
74543;SDS011;63016;55.030;38.710;2023-04-25T09:06:31;4.10;;;2.13;;
74543;SDS011;63016;55.030;38.710;2023-04-25T09:09:01;3.05;;;2.00;;
74543;SDS011;63016;55.030;38.710;2023-04-25T09:11:29;4.43;;;2.15;;
74543;SDS011;63016;55.030;38.710;2023-04-25T09:14:16;6.25;;;2.38;;
74543;SDS011;63016;55.030;38.710;2023-04-25T09:19:26;3.03;;;1.95;;
74543;SDS011;63016;55.030;38.710;2023-04-25T09:21:56;4.18;;;2.10;;
74543;SDS011;63016;55.030;38.710;2023-04-25T09:27:06;2.53;;;2.33;;
74543;SDS011;63016;55.030;38.710;2023-04-25T09:29:36;4.05;;;2.60;;
74543;SDS011;63016;55.030;38.710;2023-04-25T09:32:20;2.88;;;2.30;;
74543;SDS011;63016;55.030;38.710;2023-04-25T09:34:50;3.55;;;2.10;;
74543;SDS011;63016;55.030;38.710;2023-04-25T09:37:17;4.22;;;2.35;;
74543;SDS011;63016;55.030;38.710;2023-04-25T09:39:47;3.65;;;2.10;;
74543;SDS011;63016;55.030;38.710;2023-04-25T09:42:15;3.38;;;2.33;;
74543;SDS011;63016;55.030;38.710;2023-04-25T09:44:44;3.80;;;2.80;;
74543;SDS011;63016;55.030;38.710;2023-04-25T09:47:11;5.32;;;2.47;;
74543;SDS011;63016;55.030;38.710;2023-04-25T09:49:41;5.10;;;2.10;;
74543;SDS011;63016;55.030;38.710;2023-04-25T09:52:07;4.40;;;2.47;;
74543;SDS011;63016;55.030;38.710;2023-04-25T09:54:34;3.17;;;2.50;;
74543;SDS011;63016;55.030;38.710;2023-04-25T09:57:02;4.22;;;2.53;;
74543;SDS011;63016;55.030;38.710;2023-04-25T09:59:42;6.40;;;2.65;;
74543;SDS011;63016;55.030;38.710;2023-04-25T10:02:10;6.32;;;2.22;;
74543;SDS011;63016;55.030;38.710;2023-04-25T10:04:37;4.95;;;2.35;;
74543;SDS011;63016;55.030;38.710;2023-04-25T10:07:04;3.90;;;2.30;;
74543;SDS011;63016;55.030;38.710;2023-04-25T10:09:31;3.40;;;2.58;;
74543;SDS011;63016;55.030;38.710;2023-04-25T10:12:01;4.43;;;2.35;;
74543;SDS011;63016;55.030;38.710;2023-04-25T10:14:29;3.15;;;2.47;;
74543;SDS011;63016;55.030;38.710;2023-04-25T10:16:56;2.95;;;2.00;;
74543;SDS011;63016;55.030;38.710;2023-04-25T10:19:23;2.95;;;2.35;;
74543;SDS011;63016;55.030;38.710;2023-04-25T10:21:54;4.05;;;2.13;;
74543;SDS011;63016;55.030;38.710;2023-04-25T10:24:27;3.67;;;2.10;;
74543;SDS011;63016;55.030;38.710;2023-04-25T10:26:53;3.50;;;2.22;;
74543;SDS011;63016;55.030;38.710;2023-04-25T10:29:23;4.43;;;2.03;;
74543;SDS011;63016;55.030;38.710;2023-04-25T10:31:49;6.15;;;2.00;;
74543;SDS011;63016;55.030;38.710;2023-04-25T10:34:15;2.33;;;1.90;;
74543;SDS011;63016;55.030;38.710;2023-04-25T10:36:42;2.85;;;1.88;;
74543;SDS011;63016;55.030;38.710;2023-04-25T10:39:08;3.95;;;2.00;;
74543;SDS011;63016;55.030;38.710;2023-04-25T10:41:45;2.33;;;1.75;;
74543;SDS011;63016;55.030;38.710;2023-04-25T10:44:13;3.63;;;1.85;;
74543;SDS011;63016;55.030;38.710;2023-04-25T10:46:39;3.95;;;2.00;;
74543;SDS011;63016;55.030;38.710;2023-04-25T10:49:04;5.13;;;2.00;;
74543;SDS011;63016;55.030;38.710;2023-04-25T10:51:33;2.17;;;1.80;;
74543;SDS011;63016;55.030;38.710;2023-04-25T10:54:05;5.60;;;1.80;;
74543;SDS011;63016;55.030;38.710;2023-04-25T10:56:32;4.07;;;1.70;;
74543;SDS011;63016;55.030;38.710;2023-04-25T10:59:04;4.45;;;1.75;;
74543;SDS011;63016;55.030;38.710;2023-04-25T11:01:41;3.90;;;1.80;;
74543;SDS011;63016;55.030;38.710;2023-04-25T11:09:35;3.53;;;1.90;;
74543;SDS011;63016;55.030;38.710;2023-04-25T11:12:03;3.83;;;2.17;;
74543;SDS011;63016;55.030;38.710;2023-04-25T11:14:30;3.00;;;1.80;;
74543;SDS011;63016;55.030;38.710;2023-04-25T11:16:56;3.25;;;1.63;;
74543;SDS011;63016;55.030;38.710;2023-04-25T11:19:23;3.80;;;1.70;;
74543;SDS011;63016;55.030;38.710;2023-04-25T11:21:50;2.50;;;1.90;;
74543;SDS011;63016;55.030;38.710;2023-04-25T11:24:16;2.67;;;1.90;;
74543;SDS011;63016;55.030;38.710;2023-04-25T11:26:42;4.35;;;1.88;;
74543;SDS011;63016;55.030;38.710;2023-04-25T11:29:08;6.05;;;1.92;;
74543;SDS011;63016;55.030;38.710;2023-04-25T11:31:34;2.90;;;1.95;;
74543;SDS011;63016;55.030;38.710;2023-04-25T11:33:59;4.95;;;1.92;;
74543;SDS011;63016;55.030;38.710;2023-04-25T11:36:25;5.20;;;2.10;;
74543;SDS011;63016;55.030;38.710;2023-04-25T11:38:52;3.88;;;1.80;;
74543;SDS011;63016;55.030;38.710;2023-04-25T11:41:18;3.90;;;1.98;;
74543;SDS011;63016;55.030;38.710;2023-04-25T11:43:47;4.78;;;1.60;;
74543;SDS011;63016;55.030;38.710;2023-04-25T11:46:13;4.45;;;1.88;;
74543;SDS011;63016;55.030;38.710;2023-04-25T11:48:40;3.17;;;1.80;;
74543;SDS011;63016;55.030;38.710;2023-04-25T11:51:07;5.60;;;2.05;;
74543;SDS011;63016;55.030;38.710;2023-04-25T11:53:33;3.58;;;1.67;;
74543;SDS011;63016;55.030;38.710;2023-04-25T11:55:59;4.88;;;1.58;;
74543;SDS011;63016;55.030;38.710;2023-04-25T11:58:25;3.20;;;1.60;;
74543;SDS011;63016;55.030;38.710;2023-04-25T12:00:51;2.58;;;1.60;;
74543;SDS011;63016;55.030;38.710;2023-04-25T12:03:17;2.67;;;1.80;;
74543;SDS011;63016;55.030;38.710;2023-04-25T12:05:44;2.88;;;1.90;;
74543;SDS011;63016;55.030;38.710;2023-04-25T12:08:14;4.03;;;1.90;;
74543;SDS011;63016;55.030;38.710;2023-04-25T12:10:41;5.03;;;1.63;;
74543;SDS011;63016;55.030;38.710;2023-04-25T12:13:24;2.72;;;1.80;;
74543;SDS011;63016;55.030;38.710;2023-04-25T12:15:51;3.10;;;1.60;;
74543;SDS011;63016;55.030;38.710;2023-04-25T12:18:20;1.95;;;1.45;;
74543;SDS011;63016;55.030;38.710;2023-04-25T12:20:48;2.67;;;1.73;;
74543;SDS011;63016;55.030;38.710;2023-04-25T12:23:13;5.03;;;2.10;;
74543;SDS011;63016;55.030;38.710;2023-04-25T12:25:43;4.88;;;2.50;;
74543;SDS011;63016;55.030;38.710;2023-04-25T12:31:06;4.22;;;2.83;;
74543;SDS011;63016;55.030;38.710;2023-04-25T12:33:33;8.27;;;3.20;;
74543;SDS011;63016;55.030;38.710;2023-04-25T12:36:00;9.80;;;3.70;;
74543;SDS011;63016;55.030;38.710;2023-04-25T12:38:29;6.28;;;3.03;;
74543;SDS011;63016;55.030;38.710;2023-04-25T12:40:57;8.98;;;3.35;;
74543;SDS011;63016;55.030;38.710;2023-04-25T12:43:23;6.07;;;2.88;;
74543;SDS011;63016;55.030;38.710;2023-04-25T12:45:50;4.97;;;2.20;;
74543;SDS011;63016;55.030;38.710;2023-04-25T12:48:16;5.68;;;2.00;;
74543;SDS011;63016;55.030;38.710;2023-04-25T12:50:42;5.85;;;2.05;;
74543;SDS011;63016;55.030;38.710;2023-04-25T12:53:09;4.30;;;2.13;;
74543;SDS011;63016;55.030;38.710;2023-04-25T12:55:35;4.30;;;1.80;;
74543;SDS011;63016;55.030;38.710;2023-04-25T12:58:01;9.13;;;2.03;;
74543;SDS011;63016;55.030;38.710;2023-04-25T13:00:26;5.60;;;2.00;;
74543;SDS011;63016;55.030;38.710;2023-04-25T13:02:52;3.25;;;1.70;;
74543;SDS011;63016;55.030;38.710;2023-04-25T13:05:18;3.83;;;1.80;;
74543;SDS011;63016;55.030;38.710;2023-04-25T13:07:43;2.70;;;1.20;;
74543;SDS011;63016;55.030;38.710;2023-04-25T13:10:09;10.00;;;1.42;;
74543;SDS011;63016;55.030;38.710;2023-04-25T13:12:35;7.00;;;1.30;;
74543;SDS011;63016;55.030;38.710;2023-04-25T13:15:01;2.30;;;1.20;;
74543;SDS011;63016;55.030;38.710;2023-04-25T13:17:26;5.78;;;1.10;;
74543;SDS011;63016;55.030;38.710;2023-04-25T13:19:52;4.20;;;1.10;;
74543;SDS011;63016;55.030;38.710;2023-04-25T13:22:17;1.38;;;1.00;;
74543;SDS011;63016;55.030;38.710;2023-04-25T13:24:45;3.50;;;1.20;;
74543;SDS011;63016;55.030;38.710;2023-04-25T13:27:10;3.10;;;1.20;;
74543;SDS011;63016;55.030;38.710;2023-04-25T13:29:36;5.25;;;1.20;;
74543;SDS011;63016;55.030;38.710;2023-04-25T13:32:03;1.70;;;1.10;;
74543;SDS011;63016;55.030;38.710;2023-04-25T13:34:29;3.22;;;1.08;;
74543;SDS011;63016;55.030;38.710;2023-04-25T13:36:55;3.08;;;1.10;;
74543;SDS011;63016;55.030;38.710;2023-04-25T13:39:21;3.90;;;1.10;;
74543;SDS011;63016;55.030;38.710;2023-04-25T13:41:46;4.65;;;1.20;;
74543;SDS011;63016;55.030;38.710;2023-04-25T13:44:12;4.13;;;1.10;;
74543;SDS011;63016;55.030;38.710;2023-04-25T13:46:37;3.22;;;1.00;;
74543;SDS011;63016;55.030;38.710;2023-04-25T13:49:03;1.90;;;1.08;;
74543;SDS011;63016;55.030;38.710;2023-04-25T13:51:29;6.93;;;1.05;;
74543;SDS011;63016;55.030;38.710;2023-04-25T13:53:55;5.20;;;1.40;;
74543;SDS011;63016;55.030;38.710;2023-04-25T13:56:21;2.53;;;1.30;;
74543;SDS011;63016;55.030;38.710;2023-04-25T13:58:48;2.00;;;1.08;;
74543;SDS011;63016;55.030;38.710;2023-04-25T14:01:15;3.10;;;1.38;;
74543;SDS011;63016;55.030;38.710;2023-04-25T14:03:40;2.78;;;1.25;;
74543;SDS011;63016;55.030;38.710;2023-04-25T14:06:06;2.35;;;1.00;;
74543;SDS011;63016;55.030;38.710;2023-04-25T14:08:33;2.90;;;1.17;;
74543;SDS011;63016;55.030;38.710;2023-04-25T14:10:59;4.10;;;1.00;;
74543;SDS011;63016;55.030;38.710;2023-04-25T14:13:25;4.13;;;1.30;;
74543;SDS011;63016;55.030;38.710;2023-04-25T14:15:51;2.40;;;1.33;;
74543;SDS011;63016;55.030;38.710;2023-04-25T14:18:16;5.05;;;1.30;;
74543;SDS011;63016;55.030;38.710;2023-04-25T14:20:42;2.35;;;1.30;;
74543;SDS011;63016;55.030;38.710;2023-04-25T14:23:08;3.80;;;1.40;;
74543;SDS011;63016;55.030;38.710;2023-04-25T14:25:33;1.77;;;1.52;;
74543;SDS011;63016;55.030;38.710;2023-04-25T14:28:00;4.57;;;1.60;;
74543;SDS011;63016;55.030;38.710;2023-04-25T14:30:26;2.33;;;1.40;;
74543;SDS011;63016;55.030;38.710;2023-04-25T14:32:51;8.35;;;1.90;;
74543;SDS011;63016;55.030;38.710;2023-04-25T14:35:17;4.25;;;1.58;;
74543;SDS011;63016;55.030;38.710;2023-04-25T14:37:42;4.03;;;1.48;;
74543;SDS011;63016;55.030;38.710;2023-04-25T14:40:08;5.82;;;1.38;;
74543;SDS011;63016;55.030;38.710;2023-04-25T14:42:35;6.63;;;1.60;;
74543;SDS011;63016;55.030;38.710;2023-04-25T14:45:02;3.63;;;1.27;;
74543;SDS011;63016;55.030;38.710;2023-04-25T14:47:29;1.67;;;1.40;;